ADDS METAR Data INFO
IDs: Format: Raw Decoded Include TAF

Data at: 1111 UTC 18 Oct 2017

KBKD 181055Z AUTO 17007KT 10SM CLR 13/06 A3009 RMK AO2 T01340060
KBKD 181035Z AUTO 17007KT 10SM CLR 14/06 A3009 RMK AO2 T01370060
KBKD 181015Z AUTO 18008KT 10SM CLR 14/06 A3009 RMK AO2 T01360060
KBKD 180955Z AUTO 17007KT 10SM CLR 14/06 A3008 RMK AO2 T01370061
KBKD 180935Z AUTO 19006KT 10SM CLR 14/06 A3008 RMK AO2 T01400061
KBKD 180915Z AUTO 20004KT 10SM CLR 14/06 A3008 RMK AO2 T01360062
KBKD 180855Z AUTO 20004KT 10SM CLR 14/06 A3009 RMK AO2 T01400063
KBKD 180835Z AUTO 18005KT 10SM CLR 15/06 A3009 RMK AO2 T01450063
KBKD 180815Z AUTO 16008KT 10SM CLR 15/06 A3009 RMK AO2 T01510061
KBKD 180755Z AUTO 16007KT 10SM CLR 15/06 A3010 RMK AO2 T01500061
KBKD 180735Z AUTO 16006KT 10SM CLR 15/06 A3010 RMK AO2 T01480061
KBKD 180715Z AUTO 16005KT 10SM CLR 15/06 A3010 RMK AO2 T01510057
KBKD 180655Z AUTO 16005KT 10SM CLR 15/06 A3011 RMK AO2 T01500056
KBKD 180635Z AUTO 17006KT 10SM CLR 15/06 A3011 RMK AO2 T01500056
KBKD 180615Z AUTO 17005KT 10SM CLR 16/06 A3011 RMK AO2 T01560060
KBKD 180555Z AUTO 16006KT 10SM CLR 16/06 A3011 RMK AO2 T01630057 10238 20155 402790048
KBKD 180535Z AUTO 17008G14KT 10SM CLR 17/06 A3012 RMK AO2 T01670056
KBKD 180510Z AUTO 16010KT 10SM CLR 16/06 A3013 RMK AO2 T01610063
KBKD 180455Z AUTO 15008KT 10SM CLR 16/06 A3013 RMK AO2 T01560063
KBKD 180435Z AUTO 15008KT 10SM CLR 16/06 A3013 RMK AO2 T01550061
KBKD 180415Z AUTO 15008KT 10SM CLR 16/06 A3014 RMK AO2 T01600060
KBKD 180355Z AUTO 14008KT 10SM CLR 17/06 A3014 RMK AO2 T01650060
KBKD 180335Z AUTO 15008KT 10SM CLR 17/06 A3014 RMK AO2 T01690060
KBKD 180315Z AUTO 15009KT 10SM CLR 17/06 A3013 RMK AO2 T01720057
KBKD 180255Z AUTO 14009KT 10SM CLR 18/06 A3013 RMK AO2 T01750056
KBKD 180235Z AUTO 14009KT 10SM CLR 18/06 A3013 RMK AO2 T01800056
KBKD 180215Z AUTO 15010KT 10SM CLR 18/06 A3013 RMK AO2 T01830055
KBKD 180155Z AUTO 14010KT 10SM CLR 19/05 A3013 RMK AO2 T01850051
KBKD 180135Z AUTO 14009KT 10SM CLR 19/05 A3013 RMK AO2 T01910047
KBKD 180115Z AUTO 15008KT 7SM CLR 19/04 A3013 RMK AO2 T01940043
KBKD 180055Z AUTO 14008KT 7SM CLR 20/04 A3012 RMK AO2 T02010035
KBKD 180035Z AUTO 13008KT 10SM CLR 21/04 A3011 RMK AO2 T02070036
KBKD 180015Z AUTO 16006KT 5SM HZ CLR 22/03 A3012 RMK AO2 T02240033
KBKD 172355Z AUTO 16006KT 5SM HZ CLR 24/03 A3011 RMK AO2 T02390030 10279 20239
KBKD 172335Z AUTO 16007KT 5SM HZ CLR 25/03 A3011 RMK AO2 T02520027
KBKD 172315Z AUTO 16008KT 5SM HZ CLR 26/02 A3011 RMK AO2 T02620015
KBKD 172255Z AUTO 16008KT 4SM HZ CLR 27/01 A3012 RMK AO2 T02670006
KBKD 172235Z AUTO 16009KT 5SM HZ CLR 27/01 A3012 RMK AO2 T02700006
KBKD 172215Z AUTO 16009KT 5SM HZ CLR 27/00 A3012 RMK AO2 T02740002
KBKD 172155Z AUTO 15009KT 4SM HZ CLR 28/00 A3012 RMK AO2 T02760000
KBKD 172135Z AUTO 18008G14KT 5SM HZ CLR 28/M01 A3013 RMK AO2 T02771006
KBKD 172115Z AUTO 20008KT 5SM HZ CLR 28/00 A3014 RMK AO2 T02771002
KBKD 172055Z AUTO 19007KT 5SM HZ CLR 28/M01 A3014 RMK AO2 T02751008
KBKD 172035Z AUTO 21005KT 5SM HZ CLR 27/00 A3015 RMK AO2 T02731002
KBKD 172015Z AUTO 20008KT 4SM HZ CLR 27/00 A3016 RMK AO2 T02711001
KBKD 171955Z AUTO 17005KT 5SM HZ CLR 27/01 A3017 RMK AO2 T02710013
KBKD 171935Z AUTO 16011G16KT 120V190 5SM HZ CLR 26/01 A3018 RMK AO2 T02640009
KBKD 171915Z AUTO 16005KT 5SM HZ CLR 26/01 A3019 RMK AO2 T02590014
KBKD 171855Z AUTO 18007G20KT 5SM HZ CLR 26/02 A3021 RMK AO2 T02580016
KBKD 171835Z AUTO 17006KT 5SM HZ CLR 25/02 A3023 RMK AO2 T02510016
KBKD 171815Z AUTO 21008KT 140V230 4SM HZ CLR 25/01 A3025 RMK AO2 T02460013
KBKD 171755Z AUTO 16006KT 5SM HZ CLR 24/02 A3026 RMK AO2 T02400018 10241 20048
KBKD 171735Z AUTO 20009G14KT 4SM HZ CLR 24/02 A3027 RMK AO2 T02360022
KBKD 171715Z AUTO 20006KT 5SM HZ CLR 23/02 A3027 RMK AO2 T02330022
KBKD 171655Z AUTO 20008KT 5SM HZ CLR 23/03 A3028 RMK AO2 T02280025
KBKD 171635Z AUTO 18009KT 140V200 7SM CLR 22/03 A3029 RMK AO2 T02200026
KBKD 171615Z AUTO 18011KT 5SM HZ CLR 21/03 A3029 RMK AO2 T02110025
KBKD 171555Z AUTO 17010KT 10SM CLR 21/03 A3030 RMK AO2 T02070028
KBKD 171535Z AUTO 18008KT 130V200 10SM CLR 20/04 A3030 RMK AO2 T01960038
KBKD 171515Z AUTO 18008KT 10SM CLR 18/05 A3030 RMK AO2 T01770048
KBKD 171455Z AUTO 17006KT 10SM CLR 16/05 A3030 RMK AO2 T01560048
KBKD 171435Z AUTO 00000KT 7SM CLR 14/05 A3031 RMK AO2 T01440052
KBKD 171415Z AUTO 00000KT 10SM CLR 12/06 A3031 RMK AO2 T01180063
KBKD 171355Z AUTO 00000KT 10SM CLR 11/05 A3030 RMK AO2 T01060054
KBKD 171335Z AUTO 00000KT 10SM CLR 08/03 A3030 RMK AO2 T00770033
KBKD 171315Z AUTO 00000KT 10SM CLR 06/03 A3029 RMK AO2 T00590030
KBKD 171255Z AUTO 10SM CLR 06/02 A3029 RMK AO2 T00550023
KBKD 171235Z AUTO 19003KT 10SM CLR 05/02 A3028 RMK AO2 T00520022
KBKD 171215Z AUTO 15004KT 10SM CLR 05/02 A3028 RMK AO2 T00530020
KBKD 171155Z AUTO 00000KT 10SM CLR 06/02 A3028 RMK AO2 T00630024 10100 20053
KBKD 171135Z AUTO 19003KT 10SM CLR 07/03 A3028 RMK AO2 T00690026
KBKD 171115Z AUTO 20004KT 10SM CLR 07/03 A3027 RMK AO2 T00680027
KBKD 171055Z AUTO 21005KT 10SM CLR 06/03 A3027 RMK AO2 T00600026
KBKD 171035Z AUTO 00000KT 10SM CLR 06/02 A3027 RMK AO2 T00600023
KBKD 171015Z AUTO 00000KT 10SM CLR 07/03 A3027 RMK AO2 T00710028
KBKD 170955Z AUTO 00000KT 10SM CLR 07/03 A3026 RMK AO2 T00650032
KBKD 170935Z AUTO 24003KT 10SM CLR 06/03 A3027 RMK AO2 T00550031
KBKD 170915Z AUTO 20003KT 10SM CLR 08/04 A3027 RMK AO2 T00800041
KBKD 170855Z AUTO 18003KT 10SM CLR 07/03 A3027 RMK AO2 T00700034
KBKD 170835Z AUTO 19003KT 10SM CLR 08/03 A3028 RMK AO2 T00800033
KBKD 170815Z AUTO 00000KT 10SM CLR 07/04 A3028 RMK AO2 T00730035
KBKD 170755Z AUTO 00000KT 7SM CLR 08/04 A3028 RMK AO2 T00780035
KBKD 170735Z AUTO 18004KT 10SM CLR 09/04 A3029 RMK AO2 T00870035
KBKD 170715Z AUTO 20003KT 10SM CLR 09/04 A3029 RMK AO2 T00920036
KBKD 170655Z AUTO 23003KT 7SM CLR 09/05 A3030 RMK AO2 T00860054
KBKD 170635Z AUTO 26003KT 10SM CLR 07/05 A3030 RMK AO2 T00720051
KBKD 170615Z AUTO 23003KT 10SM CLR 09/05 A3030 RMK AO2 T00920053
KBKD 170555Z AUTO 00000KT 10SM CLR 10/05 A3030 RMK AO2 T00960049 10208 20086 402320036
KBKD 170535Z AUTO 00000KT 10SM CLR 10/05 A3030 RMK AO2 T00990048
KBKD 170515Z AUTO 00000KT 10SM CLR 10/04 A3030 RMK AO2 T00970043
KBKD 170455Z AUTO 00000KT 10SM CLR 10/04 A3030 RMK AO2 T00980043
KBKD 170435Z AUTO 15004KT 7SM CLR 09/04 A3030 RMK AO2 T00860044
KBKD 170415Z AUTO 15003KT 7SM CLR 10/05 A3030 RMK AO2 T00950046
KBKD 170355Z AUTO 14004KT 10SM CLR 11/06 A3030 RMK AO2 T01120057
KBKD 170335Z AUTO 16005KT 10SM CLR 10/05 A3030 RMK AO2 T01010047
KBKD 170315Z AUTO 15006KT 7SM CLR 11/05 A3030 RMK AO2 T01100045
KBKD 170255Z AUTO 15003KT 7SM CLR 12/05 A3030 RMK AO2 T01210045
KBKD 170235Z AUTO 14003KT 7SM CLR 14/04 A3030 RMK AO2 T01420037
KBKD 170215Z AUTO 00000KT 5SM HZ CLR 14/04 A3030 RMK AO2 T01400044
KBKD 170155Z AUTO 00000KT 7SM CLR 15/04 A3030 RMK AO2 T01450041
KBKD 170135Z AUTO 00000KT 7SM CLR 16/04 A3030 RMK AO2 T01590036
KBKD 170115Z AUTO 00000KT 7SM CLR 17/03 A3030 RMK AO2 T01730030
KBKD 170055Z AUTO 00000KT 7SM CLR 17/04 A3030 RMK AO2 T01740038
KBKD 170035Z AUTO 00000KT 7SM CLR 18/04 A3029 RMK AO2 T01750041
KBKD 170015Z AUTO 06003KT 5SM HZ CLR 20/03 A3029 RMK AO2 T02000025
KBKD 162355Z AUTO 05003KT 5SM HZ CLR 21/02 A3028 RMK AO2 T02100021 10232 20202
KBKD 162335Z AUTO 00000KT 4SM HZ CLR 22/02 A3028 RMK AO2 T02160019
KBKD 162315Z AUTO 00000KT 5SM HZ CLR 22/02 A3028 RMK AO2 T02210017